createdAt,value
2022-12-08T00:02:51.599Z,98.69
2022-12-08T00:06:13.202Z,98.25
2022-12-08T00:09:39.774Z,98.76
2022-12-08T00:12:42.481Z,98.07
2022-12-08T00:15:44.968Z,98.44
2022-12-08T00:18:47.657Z,99.61
2022-12-08T00:21:50.984Z,98.55
2022-12-08T00:24:55.518Z,98.37
2022-12-08T00:27:58.247Z,99.00
2022-12-08T00:31:08.497Z,99.46
2022-12-08T00:34:12.459Z,98.73
2022-12-08T00:37:14.920Z,98.86
2022-12-08T00:40:17.134Z,98.72
2022-12-08T00:43:19.572Z,100.00
2022-12-08T00:46:22.163Z,100.00
2022-12-08T00:49:25.087Z,100.00
2022-12-08T00:52:27.487Z,99.38
2022-12-08T00:55:31.528Z,98.96
2022-12-08T00:58:35.337Z,98.69
2022-12-08T01:01:39.673Z,98.34
2022-12-08T01:04:42.354Z,98.74
2022-12-08T01:07:45.126Z,98.48
2022-12-08T01:10:47.438Z,98.26
2022-12-08T01:13:50.155Z,97.38
2022-12-08T01:16:53.962Z,98.20
2022-12-08T01:20:00.336Z,99.21
2022-12-08T01:23:02.550Z,98.50
2022-12-08T01:26:06.873Z,97.74
2022-12-08T01:29:09.907Z,97.68
2022-12-08T01:32:12.485Z,98.46
2022-12-08T01:35:14.942Z,98.53
2022-12-08T01:38:17.776Z,98.79
2022-12-08T01:41:29.576Z,98.34
2022-12-08T01:44:32.629Z,98.89
2022-12-08T01:47:40.648Z,98.06
2022-12-08T01:50:44.220Z,98.87
2022-12-08T01:53:48.293Z,98.59
2022-12-08T01:56:55.957Z,98.61
2022-12-08T02:00:05.767Z,98.22
2022-12-08T02:03:36.955Z,98.41
2022-12-08T02:06:43.329Z,98.37
2022-12-08T02:09:47.922Z,98.79
2022-12-08T02:12:53.026Z,98.86
2022-12-08T02:16:32.036Z,100.00
2022-12-08T02:20:19.718Z,99.35
2022-12-08T02:23:33.542Z,99.82
2022-12-08T02:26:56.633Z,99.39
2022-12-08T02:30:07.023Z,99.93
2022-12-08T02:33:33.093Z,100.00
2022-12-08T02:37:10.321Z,100.00
2022-12-08T02:40:41.722Z,99.92
2022-12-08T02:43:47.548Z,100.00
2022-12-08T02:46:59.276Z,99.58
2022-12-08T02:50:04.342Z,99.66
2022-12-08T02:56:28.581Z,99.35
2022-12-08T02:59:39.988Z,99.26
2022-12-08T03:02:45.372Z,99.69
2022-12-08T03:06:09.573Z,99.76
2022-12-08T03:09:39.180Z,100.00
2022-12-08T03:13:12.443Z,99.64
2022-12-08T03:16:19.895Z,99.98
2022-12-08T03:19:26.858Z,100.00
2022-12-08T03:22:29.270Z,100.00
2022-12-08T03:25:37.981Z,100.00
2022-12-08T03:28:41.813Z,100.00
2022-12-08T03:31:52.154Z,100.00
2022-12-08T03:34:57.412Z,100.00
2022-12-08T03:38:07.098Z,100.00
2022-12-08T03:41:19.798Z,100.00
2022-12-08T03:44:22.330Z,100.00
2022-12-08T03:47:24.638Z,100.00
2022-12-08T03:50:27.406Z,100.00
2022-12-08T03:53:29.764Z,100.00
2022-12-08T03:56:35.481Z,100.00
2022-12-08T03:59:39.066Z,100.00
2022-12-08T04:02:43.213Z,100.00
2022-12-08T04:05:48.162Z,100.00
2022-12-08T04:08:50.858Z,100.00
2022-12-08T04:11:53.461Z,99.75
2022-12-08T04:14:57.515Z,99.88
2022-12-08T04:18:03.829Z,100.00
2022-12-08T04:21:06.401Z,100.00
2022-12-08T04:24:10.480Z,100.00
2022-12-08T04:27:12.649Z,100.00
2022-12-08T04:30:15.060Z,100.00
2022-12-08T04:33:17.685Z,99.88
2022-12-08T04:36:22.517Z,100.00
2022-12-08T04:39:24.918Z,100.00
2022-12-08T04:42:27.689Z,100.00
2022-12-08T04:45:30.918Z,100.00
2022-12-08T04:48:34.363Z,100.00
2022-12-08T04:51:37.027Z,100.00
2022-12-08T04:54:39.477Z,100.00
2022-12-08T04:57:41.698Z,100.00
2022-12-08T05:00:44.548Z,99.68
2022-12-08T05:03:46.762Z,99.52
2022-12-08T05:06:49.222Z,100.00
2022-12-08T05:09:51.384Z,100.00
2022-12-08T05:12:53.881Z,100.00
2022-12-08T05:16:09.486Z,100.00
2022-12-08T05:19:15.735Z,100.00
2022-12-08T05:22:18.270Z,100.00
2022-12-08T05:25:20.877Z,100.00
2022-12-08T05:31:46.003Z,100.00
2022-12-08T05:34:48.214Z,100.00
2022-12-08T05:37:50.769Z,100.00
2022-12-08T05:40:52.876Z,99.75
2022-12-08T05:43:55.386Z,100.00
2022-12-08T05:46:59.378Z,100.00
2022-12-08T05:50:03.592Z,100.00
2022-12-08T05:53:06.509Z,100.00
2022-12-08T05:56:09.201Z,100.00
2022-12-08T05:59:11.584Z,100.00
2022-12-08T06:02:14.131Z,100.00
2022-12-08T06:05:16.809Z,100.00
2022-12-08T06:08:19.089Z,100.00
2022-12-08T06:11:29.546Z,100.00
2022-12-08T06:14:33.861Z,100.00
2022-12-08T06:17:37.640Z,100.00
2022-12-08T06:20:39.898Z,100.00
2022-12-08T06:23:42.741Z,100.00
2022-12-08T06:26:45.893Z,100.00
2022-12-08T06:29:48.401Z,100.00
2022-12-08T06:32:50.629Z,99.75
2022-12-08T06:35:53.417Z,100.00
2022-12-08T06:38:56.189Z,100.00
2022-12-08T06:42:17.579Z,100.00
2022-12-08T06:45:19.898Z,100.00
2022-12-08T06:48:22.346Z,100.00
2022-12-08T06:51:24.593Z,100.00
2022-12-08T06:54:27.434Z,100.00
2022-12-08T06:57:29.722Z,100.00
2022-12-08T07:00:32.369Z,100.00
2022-12-08T07:03:35.918Z,100.00
2022-12-08T07:06:38.600Z,100.00
2022-12-08T07:09:40.690Z,100.00
2022-12-08T07:12:43.124Z,100.00
2022-12-08T07:15:45.289Z,100.00
2022-12-08T07:18:48.038Z,100.00
2022-12-08T07:21:50.311Z,100.00
2022-12-08T07:24:52.723Z,100.00
2022-12-08T07:27:54.909Z,100.00
2022-12-08T07:30:57.502Z,100.00
2022-12-08T07:33:59.742Z,100.00
2022-12-08T07:37:02.457Z,100.00
2022-12-08T07:40:09.244Z,100.00
2022-12-08T07:43:11.598Z,100.00
2022-12-08T07:46:16.320Z,100.00
2022-12-08T07:49:18.775Z,100.00
2022-12-08T07:52:20.886Z,100.00
2022-12-08T07:55:23.279Z,100.00
2022-12-08T07:58:25.914Z,100.00
2022-12-08T08:01:31.976Z,100.00
2022-12-08T08:04:34.524Z,100.00
2022-12-08T08:07:37.263Z,100.00
2022-12-08T08:10:39.699Z,99.94
2022-12-08T08:13:41.898Z,100.00
2022-12-08T08:16:46.870Z,100.00
2022-12-08T08:19:49.142Z,99.31
2022-12-08T08:22:52.435Z,100.00
2022-12-08T08:25:54.890Z,99.88
2022-12-08T08:28:57.571Z,99.85
2022-12-08T08:31:59.764Z,99.43
2022-12-08T08:35:02.319Z,98.91
2022-12-08T08:38:04.487Z,99.28
2022-12-08T08:41:09.202Z,98.71
2022-12-08T08:44:13.879Z,99.02
2022-12-08T08:47:16.407Z,99.18
2022-12-08T08:50:18.984Z,97.80
2022-12-08T08:53:21.772Z,95.42
2022-12-08T08:56:24.247Z,94.36
2022-12-08T08:59:29.343Z,93.81
2022-12-08T09:02:31.564Z,94.42
2022-12-08T09:05:34.304Z,93.98
2022-12-08T09:08:37.573Z,94.08
2022-12-08T09:11:43.245Z,93.79
2022-12-08T09:14:46.033Z,92.93
2022-12-08T09:17:48.634Z,91.42
2022-12-08T09:20:50.844Z,89.98
2022-12-08T09:23:55.561Z,88.10
2022-12-08T09:26:57.712Z,88.31
2022-12-08T09:30:00.339Z,88.85
2022-12-08T09:33:02.498Z,87.18
2022-12-08T09:36:05.330Z,86.94
2022-12-08T09:39:09.103Z,86.74
2022-12-08T09:42:11.797Z,88.29
2022-12-08T09:45:16.460Z,87.93
2022-12-08T09:48:23.617Z,86.79
2022-12-08T09:51:31.410Z,86.86
2022-12-08T09:54:35.757Z,87.04
2022-12-08T09:57:38.011Z,86.64
2022-12-08T10:00:40.420Z,86.13
2022-12-08T10:03:43.282Z,86.05
2022-12-08T10:06:59.210Z,86.75
2022-12-08T10:10:11.600Z,85.14
2022-12-08T10:13:16.543Z,86.06
2022-12-08T10:16:29.846Z,84.48
2022-12-08T10:19:34.401Z,85.65
2022-12-08T10:22:42.866Z,84.85
2022-12-08T10:25:54.372Z,83.94
2022-12-08T10:29:02.618Z,82.95
2022-12-08T10:32:22.987Z,82.74
2022-12-08T10:35:42.088Z,81.50
2022-12-08T10:38:44.351Z,81.57
2022-12-08T10:41:46.769Z,81.27
2022-12-08T10:44:56.031Z,80.02
2022-12-08T10:48:23.827Z,82.01
2022-12-08T10:51:30.401Z,79.87
2022-12-08T10:54:37.210Z,79.72
2022-12-08T10:57:42.155Z,80.05
2022-12-08T11:00:44.829Z,81.02
2022-12-08T11:03:52.640Z,80.44
2022-12-08T11:06:55.109Z,80.79
2022-12-08T11:09:58.303Z,79.60
2022-12-08T11:13:27.317Z,80.67
2022-12-08T11:16:29.612Z,79.94
2022-12-08T11:19:37.949Z,78.28
2022-12-08T11:22:42.336Z,78.46
2022-12-08T11:25:45.121Z,75.79
2022-12-08T11:28:47.480Z,75.53
2022-12-08T11:31:57.644Z,76.04
2022-12-08T11:35:06.434Z,75.67
2022-12-08T11:38:21.490Z,76.71
2022-12-08T11:41:29.977Z,78.18
2022-12-08T11:44:58.736Z,78.30
2022-12-08T11:48:04.262Z,77.99
2022-12-08T11:51:18.468Z,78.08
2022-12-08T11:54:42.749Z,77.59
2022-12-08T11:57:45.668Z,77.32
2022-12-08T12:00:48.917Z,75.95
2022-12-08T12:04:24.697Z,74.85
2022-12-08T12:07:42.477Z,75.37
2022-12-08T12:10:54.763Z,74.82
2022-12-08T12:14:21.359Z,75.48
2022-12-08T12:17:31.225Z,75.46
2022-12-08T12:20:39.581Z,75.31
2022-12-08T12:23:54.813Z,74.65
2022-12-08T12:27:15.682Z,73.99
2022-12-08T12:30:23.404Z,75.67
2022-12-08T12:33:26.593Z,75.16
2022-12-08T12:36:29.474Z,75.14
2022-12-08T12:39:45.655Z,74.86
2022-12-08T12:43:10.723Z,76.36
2022-12-08T12:46:41.228Z,75.16
2022-12-08T12:49:45.717Z,76.20
2022-12-08T12:52:48.584Z,75.67
2022-12-08T12:56:02.352Z,76.78
2022-12-08T12:59:36.274Z,76.71
2022-12-08T13:02:43.891Z,76.87
2022-12-08T13:05:51.306Z,76.48
2022-12-08T13:08:56.208Z,76.86
2022-12-08T13:12:02.314Z,75.73
2022-12-08T13:15:07.141Z,75.09
2022-12-08T13:18:39.515Z,74.54
2022-12-08T13:21:42.354Z,75.43
2022-12-08T13:24:45.174Z,76.64
2022-12-08T13:27:55.155Z,75.75
2022-12-08T13:31:02.083Z,75.38
2022-12-08T13:34:06.839Z,74.70
2022-12-08T13:37:20.771Z,75.10
2022-12-08T13:40:27.366Z,74.15
2022-12-08T13:44:02.175Z,73.72
2022-12-08T13:53:10.330Z,74.57
2022-12-08T13:57:37.531Z,76.41
2022-12-08T14:00:40.203Z,76.95
2022-12-08T14:04:30.922Z,77.85
2022-12-08T14:07:19.849Z,76.79
2022-12-08T14:10:27.746Z,76.02
2022-12-08T14:13:34.204Z,75.22
2022-12-08T14:16:40.204Z,73.24
2022-12-08T14:19:45.177Z,74.91
2022-12-08T14:22:48.607Z,77.95
2022-12-08T14:25:50.941Z,79.97
2022-12-08T14:28:53.707Z,81.27
2022-12-08T14:31:56.050Z,80.00
2022-12-08T14:35:07.817Z,80.20
2022-12-08T14:38:14.336Z,79.37
2022-12-08T14:41:16.789Z,78.85
2022-12-08T14:44:24.444Z,78.23
2022-12-08T14:47:34.641Z,76.76
2022-12-08T14:50:40.334Z,75.93
2022-12-08T14:53:59.970Z,76.22
2022-12-08T14:57:03.195Z,77.36
2022-12-08T15:00:18.657Z,77.61
2022-12-08T15:03:23.261Z,77.20
2022-12-08T15:06:25.743Z,78.20
2022-12-08T15:09:38.905Z,79.13
2022-12-08T15:13:01.230Z,79.25
2022-12-08T15:16:43.700Z,77.82
2022-12-08T15:19:58.738Z,77.02
2022-12-08T15:23:01.016Z,76.86
2022-12-08T15:26:05.104Z,76.92
2022-12-08T15:29:20.736Z,79.04
2022-12-08T15:32:23.898Z,79.75
2022-12-08T15:35:26.217Z,80.53
2022-12-08T15:38:29.430Z,80.46
2022-12-08T15:41:31.625Z,80.86
2022-12-08T15:44:34.114Z,82.69
2022-12-08T15:47:36.318Z,80.13
2022-12-08T15:50:38.803Z,78.23
2022-12-08T15:53:42.351Z,77.80
2022-12-08T15:57:17.882Z,77.17
2022-12-08T16:00:51.012Z,78.06
2022-12-08T16:04:36.799Z,77.82
2022-12-08T16:07:29.392Z,78.23
2022-12-08T16:10:51.614Z,79.35
2022-12-08T16:13:59.555Z,79.67
2022-12-08T16:17:18.081Z,79.48
2022-12-08T16:20:24.435Z,79.82
2022-12-08T16:23:43.739Z,79.74
2022-12-08T16:30:17.192Z,82.51
2022-12-08T16:33:19.955Z,85.09
2022-12-08T16:36:22.374Z,82.75
2022-12-08T16:39:24.851Z,82.88
2022-12-08T16:42:45.817Z,82.65
2022-12-08T16:45:50.402Z,82.29
2022-12-08T16:48:52.843Z,83.24
2022-12-08T16:51:55.086Z,81.86
2022-12-08T16:54:57.653Z,81.33
2022-12-08T16:57:59.996Z,82.13
2022-12-08T17:01:03.146Z,82.12
2022-12-08T17:07:28.235Z,81.90
2022-12-08T17:10:32.095Z,81.63
2022-12-08T17:13:36.709Z,83.59
2022-12-08T17:16:39.409Z,84.27
2022-12-08T17:19:42.035Z,84.37
2022-12-08T17:22:44.754Z,84.20
2022-12-08T17:26:03.773Z,85.41
2022-12-08T17:29:06.246Z,87.33
2022-12-08T17:32:08.738Z,86.84
2022-12-08T17:35:11.246Z,85.04
2022-12-08T17:38:15.822Z,83.87
2022-12-08T17:41:17.930Z,84.14
2022-12-08T17:44:20.546Z,83.70
2022-12-08T17:47:22.787Z,84.98
2022-12-08T17:50:30.567Z,83.80
2022-12-08T17:53:37.176Z,83.44
2022-12-08T17:56:40.051Z,83.45
2022-12-08T17:59:42.171Z,84.34
2022-12-08T18:02:44.676Z,83.31
2022-12-08T18:05:50.980Z,82.98
2022-12-08T18:08:53.115Z,83.14
2022-12-08T18:11:56.013Z,82.83
2022-12-08T18:14:59.614Z,82.69
2022-12-08T18:18:02.294Z,82.53
2022-12-08T18:21:04.614Z,82.98
2022-12-08T18:24:07.995Z,83.88
2022-12-08T18:27:10.281Z,83.71
2022-12-08T18:30:16.566Z,84.56
2022-12-08T18:33:19.399Z,83.36
2022-12-08T18:36:24.783Z,83.31
2022-12-08T18:39:30.710Z,82.90
2022-12-08T18:42:33.265Z,83.67
2022-12-08T18:45:38.691Z,81.71
2022-12-08T18:48:46.521Z,82.69
2022-12-08T18:51:48.988Z,82.64
2022-12-08T18:55:05.810Z,83.59
2022-12-08T18:58:10.888Z,83.07
2022-12-08T19:01:16.050Z,82.56
2022-12-08T19:04:28.283Z,82.49
2022-12-08T19:07:31.843Z,83.25
2022-12-08T19:10:38.147Z,82.00
2022-12-08T19:13:40.855Z,82.25
2022-12-08T19:16:43.210Z,82.79
2022-12-08T19:19:45.690Z,83.54
2022-12-08T19:22:50.153Z,83.36
2022-12-08T19:25:52.582Z,83.86
2022-12-08T19:28:55.584Z,83.84
2022-12-08T19:31:58.862Z,84.19
2022-12-08T19:35:01.112Z,84.14
2022-12-08T19:38:03.668Z,84.73
2022-12-08T19:41:24.443Z,83.74
2022-12-08T19:44:28.789Z,83.69
2022-12-08T19:47:33.464Z,83.90
2022-12-08T19:50:36.238Z,83.43
2022-12-08T19:53:41.811Z,83.76
2022-12-08T19:56:47.137Z,84.23
2022-12-08T19:59:54.573Z,84.37
2022-12-08T20:03:00.270Z,85.56
2022-12-08T20:06:02.845Z,84.79
2022-12-08T20:09:05.401Z,83.86
2022-12-08T20:12:08.145Z,85.27
2022-12-08T20:15:11.102Z,84.83
2022-12-08T20:18:15.589Z,84.14
2022-12-08T20:21:17.890Z,83.96
2022-12-08T20:24:20.292Z,84.03
2022-12-08T20:27:23.656Z,84.52
2022-12-08T20:30:26.375Z,85.66
2022-12-08T20:33:28.719Z,85.47
2022-12-08T20:36:31.490Z,86.21
2022-12-08T20:39:33.899Z,87.04
2022-12-08T20:42:36.347Z,88.46
2022-12-08T20:45:38.885Z,86.71
2022-12-08T20:48:42.931Z,87.05
2022-12-08T20:51:45.293Z,87.61
2022-12-08T20:54:48.049Z,87.38
2022-12-08T20:57:50.361Z,86.56
2022-12-08T21:00:53.144Z,87.30
2022-12-08T21:03:55.561Z,87.91
2022-12-08T21:06:58.725Z,87.21
2022-12-08T21:10:01.716Z,87.51
2022-12-08T21:13:05.492Z,88.64
2022-12-08T21:16:13.277Z,88.42
2022-12-08T21:19:16.089Z,88.32
2022-12-08T21:22:18.437Z,88.88
2022-12-08T21:25:21.384Z,89.69
2022-12-08T21:28:23.783Z,90.36
2022-12-08T21:31:27.024Z,89.53
2022-12-08T21:34:34.177Z,89.63
2022-12-08T21:37:39.714Z,90.05
2022-12-08T21:40:43.251Z,90.53
2022-12-08T21:43:45.961Z,90.86
2022-12-08T21:46:48.320Z,90.08
2022-12-08T21:49:51.143Z,91.22
2022-12-08T21:52:53.536Z,91.16
2022-12-08T21:55:56.352Z,92.06
2022-12-08T21:58:58.682Z,92.78
2022-12-08T22:02:01.675Z,92.16
2022-12-08T22:05:05.005Z,91.99
2022-12-08T22:08:08.681Z,92.89
2022-12-08T22:11:12.120Z,92.49
2022-12-08T22:14:15.362Z,91.78
2022-12-08T22:17:18.710Z,92.81
2022-12-08T22:20:21.316Z,92.32
2022-12-08T22:23:23.984Z,92.44
2022-12-08T22:26:26.410Z,92.83
2022-12-08T22:29:30.054Z,93.17
2022-12-08T22:32:32.585Z,92.60
2022-12-08T22:35:35.393Z,92.20
2022-12-08T22:38:37.515Z,92.90
2022-12-08T22:41:40.155Z,92.65
2022-12-08T22:44:42.288Z,93.51
2022-12-08T22:47:44.915Z,93.61
2022-12-08T22:50:47.017Z,93.30
2022-12-08T22:53:50.148Z,92.98
2022-12-08T22:56:52.367Z,94.62
2022-12-08T22:59:56.819Z,95.27
2022-12-08T23:02:59.066Z,94.96
2022-12-08T23:06:01.810Z,95.41
2022-12-08T23:09:06.511Z,94.86
2022-12-08T23:12:09.096Z,96.10
2022-12-08T23:15:11.528Z,95.72
2022-12-08T23:18:16.766Z,95.93
2022-12-08T23:21:20.367Z,95.25
2022-12-08T23:24:22.804Z,94.36
2022-12-08T23:27:25.001Z,96.03
2022-12-08T23:30:28.947Z,96.26
2022-12-08T23:33:31.614Z,94.85
2022-12-08T23:36:34.100Z,96.31
2022-12-08T23:39:36.576Z,95.75
2022-12-08T23:42:39.364Z,95.48
2022-12-08T23:45:41.728Z,95.54
2022-12-08T23:48:44.695Z,96.18
2022-12-08T23:51:47.096Z,97.42
2022-12-08T23:54:50.398Z,95.79
2022-12-08T23:57:52.898Z,95.34
